Time;durP1;ratioP1;P1;durP2;ratioP2;P2;SDS_P1;SDS_P2;PMS_P1;PMS_P2;Temp;Humidity;BMP_temperature;BMP_pressure;BME280_temperature;BME280_humidity;BME280_pressure;Samples;Min_cycle;Max_cycle;Signal;HPM_P1;HPM_P2
2023/03/05 00:00:13;;;;;;;19.80;9.32;;;;;;;2.92;52.86;99621.50;7709533;32;37111;-80
2023/03/05 00:04:29;;;;;;;14.55;8.57;;;;;;;2.93;52.69;99623.97;7710102;32;39226;-80
2023/03/05 00:08:46;;;;;;;15.50;8.43;;;;;;;3.09;52.31;99619.03;7709757;32;40786;-80
2023/03/05 00:13:02;;;;;;;13.95;8.48;;;;;;;2.90;52.79;99628.97;7709744;32;37772;-80
2023/03/05 00:17:18;;;;;;;16.65;9.00;;;;;;;2.94;52.92;99632.88;7709663;32;38657;-81
2023/03/05 00:21:37;;;;;;;16.60;9.23;;;;;;;2.29;55.01;99625.28;7709265;32;40047;-81
2023/03/05 00:25:53;;;;;;;15.43;9.20;;;;;;;2.56;54.45;99613.19;7709226;32;40549;-80
2023/03/05 00:30:10;;;;;;;22.17;10.68;;;;;;;2.76;54.12;99601.38;7709259;32;38738;-80
2023/03/05 00:34:28;;;;;;;20.65;10.48;;;;;;;2.82;54.58;99600.50;7709037;32;37209;-80
2023/03/05 00:38:44;;;;;;;17.80;9.85;;;;;;;2.35;56.34;99597.50;7708893;32;39287;-79
2023/03/05 00:43:01;;;;;;;18.08;11.25;;;;;;;2.50;56.09;99592.59;7708679;32;39977;-81
2023/03/05 00:47:17;;;;;;;17.37;9.95;;;;;;;2.37;56.96;99598.09;7710125;32;38391;-80
2023/03/05 00:51:34;;;;;;;17.52;9.48;;;;;;;2.72;55.80;99584.84;7712673;32;37862;-79
2023/03/05 00:55:50;;;;;;;17.17;9.73;;;;;;;3.01;54.78;99582.44;7712423;32;39345;-80
2023/03/05 01:00:07;;;;;;;17.98;10.93;;;;;;;2.92;55.05;99573.03;7712472;32;39939;-80
2023/03/05 01:04:23;;;;;;;16.70;9.38;;;;;;;2.76;55.57;99572.59;7712384;32;37760;-80
2023/03/05 01:08:40;;;;;;;20.98;11.52;;;;;;;3.20;53.99;99567.88;7712520;32;37484;-80
2023/03/05 01:12:56;;;;;;;22.92;10.45;;;;;;;2.92;54.73;99567.66;7711224;32;40189;-82
2023/03/05 01:17:12;;;;;;;21.25;10.48;;;;;;;3.04;54.54;99573.09;7712420;32;38116;-81
2023/03/05 01:21:29;;;;;;;17.45;10.10;;;;;;;3.04;54.53;99562.31;7711592;32;37983;-80
2023/03/05 01:25:45;;;;;;;16.12;9.30;;;;;;;3.20;53.97;99564.38;7712232;32;36949;-80
2023/03/05 01:30:02;;;;;;;16.33;9.32;;;;;;;3.28;53.74;99565.94;7712471;32;40033;-80
2023/03/05 01:34:18;;;;;;;19.17;9.20;;;;;;;3.37;53.19;99559.97;7711737;32;40816;-80
2023/03/05 01:38:34;;;;;;;18.80;9.77;;;;;;;3.42;54.03;99555.78;7712132;32;37906;-80
2023/03/05 01:42:57;;;;;;;17.00;10.18;;;;;;;3.66;52.74;99562.84;7712031;32;37840;-81
2023/03/05 01:47:13;;;;;;;16.27;9.65;;;;;;;3.44;53.18;99569.84;7712021;32;40065;-79
2023/03/05 01:51:35;;;;;;;19.70;9.90;;;;;;;3.54;52.69;99560.13;7711793;32;40074;-79
2023/03/05 01:55:52;;;;;;;14.55;9.02;;;;;;;3.45;53.30;99560.69;7685434;32;37879;-82
2023/03/05 02:00:37;;;;;;;23.77;9.05;;;;;;;3.62;52.86;99567.03;7683348;32;37265;-80
2023/03/05 02:05:19;;;;;;;18.73;9.67;;;;;;;3.22;54.18;99570.34;7683366;32;39196;-80
2023/03/05 02:09:38;;;;;;;18.35;9.55;;;;;;;3.31;54.28;99563.59;7680232;32;40622;-79
2023/03/05 02:13:55;;;;;;;16.05;8.77;;;;;;;3.63;53.43;99559.81;7683856;32;37924;-80
2023/03/05 02:18:12;;;;;;;18.48;9.60;;;;;;;3.67;53.34;99559.09;7685260;32;37914;-80
2023/03/05 02:22:29;;;;;;;15.65;9.00;;;;;;;3.70;53.25;99563.22;7689799;32;39434;-80
2023/03/05 02:26:45;;;;;;;16.50;9.45;;;;;;;3.75;53.24;99558.75;7711553;32;40660;-80
2023/03/05 02:31:07;;;;;;;18.98;9.27;;;;;;;3.87;53.01;99557.97;7711427;32;38686;-80
2023/03/05 02:35:24;;;;;;;18.27;9.73;;;;;;;3.85;52.92;99554.69;7711525;32;38074;-79
2023/03/05 02:39:41;;;;;;;18.65;9.02;;;;;;;3.64;53.43;99556.88;7711516;32;40676;-80
2023/03/05 02:43:57;;;;;;;20.50;9.73;;;;;;;3.52;54.10;99551.47;7711315;32;40841;-81
2023/03/05 02:48:13;;;;;;;15.40;9.07;;;;;;;3.62;53.82;99550.87;7711438;32;37832;-79
2023/03/05 02:52:30;;;;;;;18.42;9.48;;;;;;;3.77;53.18;99547.72;7711109;32;37949;-80
2023/03/05 02:56:46;;;;;;;16.90;9.20;;;;;;;4.09;52.67;99540.12;7710081;32;40777;-80
2023/03/05 03:01:02;;;;;;;16.90;9.82;;;;;;;4.08;52.29;99540.38;7710677;32;40774;-81
2023/03/05 03:05:19;;;;;;;16.73;9.27;;;;;;;4.20;52.05;99540.34;7710833;32;37910;-79
2023/03/05 03:09:35;;;;;;;18.85;9.43;;;;;;;4.11;52.27;99529.91;7710881;32;36831;-81
2023/03/05 03:13:51;;;;;;;21.58;9.63;;;;;;;4.33;51.73;99527.44;7710632;32;40070;-80
2023/03/05 03:18:08;;;;;;;14.15;8.63;;;;;;;4.26;51.86;99529.44;7711077;32;40814;-80
2023/03/05 03:22:24;;;;;;;15.07;9.32;;;;;;;4.00;52.56;99536.16;7710545;32;37866;-82
2023/03/05 03:26:40;;;;;;;17.00;9.02;;;;;;;4.25;51.91;99535.06;7710800;32;37820;-81
2023/03/05 03:30:56;;;;;;;19.10;9.75;;;;;;;4.39;51.34;99525.66;7710923;32;39206;-80
2023/03/05 03:35:13;;;;;;;16.70;8.73;;;;;;;4.47;51.03;99528.00;7710676;32;40939;-79
2023/03/05 03:39:29;;;;;;;18.85;9.63;;;;;;;4.44;51.12;99528.47;7710525;32;37503;-80
2023/03/05 03:43:45;;;;;;;16.27;9.25;;;;;;;4.60;50.70;99535.00;7710457;32;36880;-80
2023/03/05 03:48:01;;;;;;;15.52;9.18;;;;;;;4.62;50.80;99534.75;7710448;32;39322;-80
2023/03/05 03:52:18;;;;;;;21.25;9.30;;;;;;;4.55;50.91;99531.38;7710078;32;40004;-79
2023/03/05 03:56:34;;;;;;;15.85;8.63;;;;;;;4.68;50.67;99525.72;7710133;32;38036;-82
2023/03/05 04:00:50;;;;;;;15.57;9.18;;;;;;;4.85;50.24;99526.59;7710090;32;37320;-80
2023/03/05 04:05:07;;;;;;;19.12;9.25;;;;;;;4.95;50.09;99522.44;7710087;32;39350;-80
2023/03/05 04:09:23;;;;;;;19.45;8.52;;;;;;;4.50;51.23;99522.13;7709899;32;39971;-80
2023/03/05 04:13:40;;;;;;;13.77;7.97;;;;;;;4.71;50.96;99522.53;7708559;32;38604;-80
2023/03/05 04:17:56;;;;;;;16.83;9.00;;;;;;;4.83;50.76;99517.91;7709623;32;38014;-81
2023/03/05 04:22:16;;;;;;;14.85;8.35;;;;;;;4.72;51.02;99518.78;7710188;32;39306;-81
2023/03/05 04:26:32;;;;;;;14.75;7.37;;;;;;;4.63;51.45;99523.72;7713107;32;40036;-81
2023/03/05 04:30:48;;;;;;;17.62;7.62;;;;;;;4.51;52.06;99514.84;7712698;32;37767;-80
2023/03/05 04:35:05;;;;;;;17.35;8.20;;;;;;;4.57;51.84;99511.19;7712936;32;37222;-80
2023/03/05 04:39:21;;;;;;;11.48;7.37;;;;;;;4.59;51.75;99519.03;7712804;32;40052;-80
2023/03/05 04:43:37;;;;;;;15.90;8.38;;;;;;;4.67;51.78;99503.31;7712790;32;39963;-80
2023/03/05 04:47:54;;;;;;;14.05;7.30;;;;;;;4.62;51.89;99510.47;7712725;32;38651;-80
2023/03/05 04:52:11;;;;;;;17.33;8.30;;;;;;;4.83;51.57;99511.69;7711322;32;37094;-80
2023/03/05 04:56:27;;;;;;;14.63;7.75;;;;;;;4.86;51.47;99501.25;7712731;32;40011;-80
2023/03/05 05:00:44;;;;;;;17.70;8.68;;;;;;;4.69;51.68;99503.03;7712289;32;40103;-80
2023/03/05 05:05:00;;;;;;;16.25;8.00;;;;;;;4.86;51.41;99495.00;7712637;32;37854;-81
2023/03/05 05:09:16;;;;;;;15.90;7.87;;;;;;;5.25;50.54;99493.28;7712516;32;37142;-81
2023/03/05 05:13:32;;;;;;;16.02;8.02;;;;;;;5.03;50.77;99489.63;7712576;32;39349;-80
2023/03/05 05:17:49;;;;;;;17.92;8.50;;;;;;;4.87;51.24;99508.25;7712105;32;41279;-79
2023/03/05 05:22:05;;;;;;;19.92;8.55;;;;;;;4.83;51.56;99493.59;7711705;32;38348;-80
2023/03/05 05:26:21;;;;;;;17.67;9.13;;;;;;;4.80;51.64;99510.28;7712382;32;37348;-80
2023/03/05 05:30:39;;;;;;;14.85;7.82;;;;;;;4.62;52.24;99513.16;7712349;32;40180;-80
2023/03/05 05:34:56;;;;;;;16.95;8.63;;;;;;;4.70;52.26;99499.28;7711259;32;39927;-80
2023/03/05 05:39:13;;;;;;;18.92;9.13;;;;;;;4.69;52.42;99505.75;7712080;32;37899;-81
2023/03/05 05:43:29;;;;;;;19.17;9.32;;;;;;;4.86;52.06;99505.78;7712181;32;37724;-80
2023/03/05 05:47:45;;;;;;;16.98;8.95;;;;;;;4.86;52.02;99503.94;7711994;32;39240;-80
2023/03/05 05:52:02;;;;;;;15.63;9.07;;;;;;;4.63;52.83;99504.81;7711625;32;40902;-80
2023/03/05 05:56:18;;;;;;;18.42;9.07;;;;;;;5.08;51.57;99519.44;7712081;32;37791;-82
2023/03/05 06:00:35;;;;;;;19.15;9.02;;;;;;;4.70;52.28;99512.78;7712304;32;37979;-81
2023/03/05 06:04:51;;;;;;;18.08;8.93;;;;;;;5.00;51.76;99517.97;7711947;32;39040;-80
2023/03/05 06:09:07;;;;;;;16.83;9.30;;;;;;;5.14;51.21;99533.88;7711916;32;39597;-81
2023/03/05 06:13:23;;;;;;;18.25;9.68;;;;;;;5.06;51.37;99527.00;7711872;32;38496;-80
2023/03/05 06:17:39;;;;;;;17.20;9.90;;;;;;;5.31;50.83;99529.31;7711777;32;37830;-80
2023/03/05 06:21:56;;;;;;;20.55;10.13;;;;;;;5.16;50.94;99532.59;7711362;32;40054;-81
2023/03/05 06:26:15;;;;;;;24.37;9.93;;;;;;;5.11;50.90;99529.78;7711032;32;40839;-82
2023/03/05 06:30:31;;;;;;;19.65;10.20;;;;;;;5.15;51.14;99530.94;7711733;32;38000;-81
2023/03/05 06:34:48;;;;;;;21.02;10.20;;;;;;;4.98;51.44;99525.47;7711465;32;37324;-79
2023/03/05 06:39:05;;;;;;;18.80;10.20;;;;;;;5.18;51.12;99535.84;7710563;32;39303;-81
2023/03/05 06:43:21;;;;;;;20.85;10.00;;;;;;;5.32;50.47;99536.37;7711050;32;40888;-81
2023/03/05 06:47:37;;;;;;;19.10;10.20;;;;;;;5.30;50.64;99537.69;7710757;32;37554;-81
2023/03/05 06:51:53;;;;;;;21.55;10.68;;;;;;;5.46;50.17;99532.28;7711795;32;37155;-81
2023/03/05 06:56:10;;;;;;;18.92;9.93;;;;;;;5.61;49.95;99534.44;7711281;32;40136;-81
2023/03/05 07:00:28;;;;;;;19.40;10.40;;;;;;;5.70;49.89;99531.34;7710629;32;39904;-81
2023/03/05 07:04:45;;;;;;;21.15;10.05;;;;;;;5.63;50.25;99536.91;7711021;32;38539;-81
2023/03/05 07:09:02;;;;;;;19.42;10.40;;;;;;;5.34;50.71;99549.66;7711254;32;37767;-80
2023/03/05 07:13:19;;;;;;;22.92;10.93;;;;;;;5.44;50.69;99550.63;7711628;32;37242;-80
2023/03/05 07:17:35;;;;;;;20.85;11.32;;;;;;;5.40;50.85;99554.09;7699523;32;373207;-81
2023/03/05 07:21:51;;;;;;;19.05;10.20;;;;;;;5.42;50.96;99541.97;7710680;32;37713;-81
2023/03/05 07:26:08;;;;;;;17.42;9.55;;;;;;;5.32;51.40;99540.97;7710914;32;37432;-80
2023/03/05 07:30:24;;;;;;;20.55;10.45;;;;;;;5.14;52.07;99539.28;7710619;32;39346;-81
2023/03/05 07:34:40;;;;;;;19.42;10.98;;;;;;;5.48;51.43;99534.75;7710164;32;40761;-81
2023/03/05 07:38:56;;;;;;;19.12;9.77;;;;;;;5.75;51.13;99534.13;7713308;32;38658;-80
2023/03/05 07:43:13;;;;;;;19.00;9.95;;;;;;;5.68;51.21;99533.47;7736212;32;37284;-82
2023/03/05 07:47:29;;;;;;;19.55;9.88;;;;;;;5.72;51.08;99534.59;7709624;32;39544;-81
2023/03/05 07:51:45;;;;;;;20.77;10.75;;;;;;;5.90;51.21;99530.81;7710460;32;40553;-81
2023/03/05 07:56:02;;;;;;;20.55;11.55;;;;;;;6.12;50.75;99534.44;7708316;32;38708;-82
2023/03/05 08:00:18;;;;;;;19.23;9.95;;;;;;;5.96;50.98;99519.84;7697448;32;38025;-82
2023/03/05 08:04:34;;;;;;;22.13;10.07;;;;;;;6.10;50.49;99514.09;7688405;32;39281;-82
2023/03/05 08:08:50;;;;;;;28.10;10.80;;;;;;;5.27;53.55;99531.69;7694597;32;39868;-83
2023/03/05 08:13:07;;;;;;;18.45;9.82;;;;;;;5.73;53.21;99517.31;7709499;32;38193;-81
2023/03/05 08:17:23;;;;;;;17.58;10.40;;;;;;;6.09;51.18;99512.44;7708458;32;37121;-81
2023/03/05 08:21:39;;;;;;;23.95;10.25;;;;;;;5.86;51.05;99511.56;7709547;32;39818;-80
2023/03/05 08:25:55;;;;;;;17.85;10.77;;;;;;;6.28;50.47;99499.44;7709334;32;40168;-81
2023/03/05 08:30:15;;;;;;;20.27;10.73;;;;;;;6.21;50.46;99491.53;7709006;32;38195;-80
2023/03/05 08:34:31;;;;;;;23.85;11.23;;;;;;;6.19;50.48;99499.91;7709247;32;36906;-81
2023/03/05 08:38:49;;;;;;;18.95;10.93;;;;;;;5.91;51.00;99500.81;7708955;32;40164;-80
2023/03/05 08:43:06;;;;;;;24.27;11.40;;;;;;;6.34;49.88;99488.44;7709045;32;40627;-80
2023/03/05 08:47:24;;;;;;;19.45;9.93;;;;;;;6.26;50.57;99491.59;7708721;32;38472;-81
2023/03/05 08:51:40;;;;;;;17.55;9.80;;;;;;;6.42;49.64;99489.09;7708912;32;37145;-82
2023/03/05 08:55:57;;;;;;;21.73;10.70;;;;;;;6.35;49.65;99481.16;7704821;32;39313;-82
2023/03/05 09:00:14;;;;;;;19.33;11.12;;;;;;;6.46;49.59;99480.19;7690927;32;40007;-81
2023/03/05 09:04:30;;;;;;;19.95;10.73;;;;;;;6.26;50.68;99486.19;7695474;32;37869;-82
2023/03/05 09:08:46;;;;;;;20.98;11.10;;;;;;;6.46;50.32;99480.19;7709377;32;37208;-82
2023/03/05 09:13:03;;;;;;;16.45;9.13;;;;;;;6.15;51.89;99482.50;7712249;32;39433;-81
2023/03/05 09:17:19;;;;;;;21.98;11.85;;;;;;;5.97;53.17;99489.03;7712558;32;39720;-81
2023/03/05 09:21:35;;;;;;;38.90;13.18;;;;;;;5.91;53.99;99495.41;7710039;32;37470;-82
2023/03/05 09:25:52;;;;;;;40.17;16.25;;;;;;;6.06;54.13;99496.72;7712277;32;38034;-82
2023/03/05 09:30:08;;;;;;;31.25;14.07;;;;;;;5.95;53.66;99485.72;7707540;32;40162;-80
2023/03/05 09:34:25;;;;;;;34.97;15.63;;;;;;;5.34;54.51;99491.00;7703615;32;39977;-82
2023/03/05 09:38:41;;;;;;;22.23;10.57;;;;;;;5.86;54.11;99491.81;7703092;32;39146;-81
2023/03/05 09:43:20;;;;;;;45.78;18.80;;;;;;;6.24;52.62;99480.19;7691773;32;38000;-83
2023/03/05 09:48:12;;;;;;;24.48;12.32;;;;;;;6.22;52.23;99479.62;7709875;32;39868;-83
2023/03/05 09:52:53;;;;;;;23.08;11.15;;;;;;;6.09;51.84;99485.38;7710544;32;40317;-80
2023/03/05 09:57:17;;;;;;;16.02;9.18;;;;;;;5.91;52.29;99484.56;7705019;32;37828;-81
2023/03/05 10:01:40;;;;;;;15.38;8.25;;;;;;;5.89;51.60;99473.19;7705857;32;36860;-82
2023/03/05 10:06:11;;;;;;;18.45;8.45;;;;;;;6.19;50.24;99469.28;7710328;32;39401;-82
2023/03/05 10:10:42;;;;;;;15.55;8.00;;;;;;;6.32;49.86;99468.91;7710578;32;39946;-81
2023/03/05 10:14:59;;;;;;;13.90;7.75;;;;;;;5.89;50.64;99465.06;7710565;32;37966;-81
2023/03/05 10:19:27;;;;;;;14.13;7.47;;;;;;;5.59;52.38;99471.66;7710350;32;37861;-81
2023/03/05 10:24:16;;;;;;;13.80;7.70;;;;;;;5.11;53.30;99470.34;7710912;32;37898;-81
2023/03/05 10:28:42;;;;;;;13.20;7.28;;;;;;;5.59;52.35;99460.03;7710440;32;40398;-83
2023/03/05 10:33:50;;;;;;;19.85;7.87;;;;;;;5.50;52.08;99454.19;7710932;32;37879;-81
2023/03/05 10:38:06;;;;;;;14.00;7.80;;;;;;;5.10;53.74;99449.78;7691903;32;37098;-82
2023/03/05 10:42:45;;;;;;;14.87;7.18;;;;;;;5.35;53.88;99446.69;7711369;32;40052;-81
2023/03/05 10:47:01;;;;;;;15.90;7.87;;;;;;;5.88;51.66;99436.37;7709771;32;39589;-82
2023/03/05 10:51:40;;;;;;;14.45;6.57;;;;;;;5.70;51.93;99433.97;7710246;32;38615;-81
2023/03/05 10:56:00;;;;;;;16.95;8.57;;;;;;;5.96;50.72;99429.75;7710539;32;37122;-82
2023/03/05 11:00:27;;;;;;;17.92;7.25;;;;;;;5.94;52.10;99424.56;7709837;32;40174;-83
2023/03/05 11:04:46;;;;;;;14.80;8.43;;;;;;;5.41;53.14;99425.94;7711038;32;40601;-82
2023/03/05 11:09:20;;;;;;;16.33;7.50;;;;;;;5.02;53.85;99428.56;7711191;32;36942;-83
2023/03/05 11:13:55;;;;;;;16.92;8.55;;;;;;;5.26;53.60;99419.25;7711216;32;37425;-83
2023/03/05 11:18:22;;;;;;;16.37;8.75;;;;;;;5.01;54.05;99414.22;7710451;32;38996;-82
2023/03/05 11:22:39;;;;;;;18.75;8.77;;;;;;;5.49;52.14;99406.63;7705990;32;41210;-82
2023/03/05 11:26:58;;;;;;;16.98;9.75;;;;;;;5.35;52.71;99405.31;7707583;32;37627;-83
2023/03/05 11:31:17;;;;;;;17.92;9.68;;;;;;;5.42;52.31;99395.16;7709743;32;37799;-83
2023/03/05 11:35:39;;;;;;;16.05;9.20;;;;;;;5.94;51.01;99386.66;7710760;32;40156;-82
2023/03/05 11:40:34;;;;;;;17.92;10.32;;;;;;;5.58;50.79;99379.97;7710752;32;39966;-82
2023/03/05 11:44:53;;;;;;;16.87;8.65;;;;;;;5.95;50.24;99376.66;7707310;32;38067;-84
2023/03/05 11:49:14;;;;;;;17.15;8.98;;;;;;;6.46;48.67;99362.94;7709343;32;37147;-82
2023/03/05 11:53:35;;;;;;;21.80;10.15;;;;;;;6.53;48.70;99350.00;7706754;32;39349;-82
2023/03/05 11:58:13;;;;;;;19.92;9.55;;;;;;;6.20;48.98;99344.53;7706502;32;39921;-82
2023/03/05 12:02:30;;;;;;;23.73;12.02;;;;;;;5.87;49.86;99342.75;7710275;32;38045;-83
2023/03/05 12:06:52;;;;;;;30.00;14.73;;;;;;;5.94;48.04;99329.03;7708636;32;37900;-84
2023/03/05 12:11:28;;;;;;;15.75;8.52;;;;;;;6.36;47.24;99328.44;7709883;32;39322;-85
2023/03/05 12:15:56;;;;;;;15.45;8.57;;;;;;;6.33;47.31;99329.78;7708340;32;39850;-85
2023/03/05 12:20:13;;;;;;;16.95;8.43;;;;;;;6.26;45.72;99323.75;7707250;32;37882;-82
2023/03/05 12:24:29;;;;;;;10.68;6.50;;;;;;;6.42;45.73;99327.44;7709274;32;37626;-82
2023/03/05 12:28:45;;;;;;;12.90;6.68;;;;;;;6.65;45.10;99318.16;7709365;32;39802;-82
2023/03/05 12:33:04;;;;;;;13.25;6.78;;;;;;;7.23;44.42;99304.78;7709356;32;39619;-82
2023/03/05 12:37:20;;;;;;;13.65;6.70;;;;;;;6.27;45.89;99316.44;7707459;32;37901;-83
2023/03/05 12:41:38;;;;;;;17.58;6.35;;;;;;;6.83;44.46;99305.28;7709013;32;37454;-83
2023/03/05 12:46:22;;;;;;;11.70;6.07;;;;;;;6.60;44.78;99309.19;7712516;32;39288;-84
2023/03/05 12:50:38;;;;;;;;;;;;;;;6.44;45.29;99302.81;7712940;32;40846;-83
2023/03/05 12:55:33;;;;;;;10.75;5.82;;;;;;;6.77;45.04;99301.72;7711900;32;38078;-83
2023/03/05 13:00:04;;;;;;;10.82;5.80;;;;;;;6.67;44.84;99294.34;7712409;32;37966;-81
2023/03/05 13:04:27;;;;;;;10.57;5.30;;;;;;;6.38;45.26;99293.78;7711434;32;39370;-82
2023/03/05 13:08:54;;;;;;;11.65;5.87;;;;;;;6.70;44.54;99301.13;7711315;32;39988;-81
2023/03/05 13:13:14;;;;;;;7.57;5.07;;;;;;;6.28;45.34;99302.66;7710614;32;38746;-81
2023/03/05 13:17:39;;;;;;;10.20;5.75;;;;;;;6.53;45.17;99303.97;7698830;32;36941;-83
2023/03/05 13:22:01;;;;;;;9.65;5.10;;;;;;;6.82;44.86;99299.06;7711572;32;39929;-82
2023/03/05 13:26:19;;;;;;;9.10;5.43;;;;;;;6.71;44.80;99298.19;7712391;32;39635;-82
2023/03/05 13:30:35;;;;;;;11.45;4.43;;;;;;;6.44;44.39;99297.41;7712486;32;36940;-82
2023/03/05 13:34:58;;;;;;;7.55;4.60;;;;;;;6.38;43.94;99294.63;7711273;32;36961;-81
2023/03/05 13:39:20;;;;;;;10.15;4.43;;;;;;;6.33;44.34;99291.87;7712508;32;40144;-82
2023/03/05 13:43:54;;;;;;;12.70;4.47;;;;;;;6.15;44.08;99295.75;7710624;32;39978;-83
2023/03/05 13:48:18;;;;;;;11.57;3.80;;;;;;;6.57;43.15;99302.38;7711054;32;37861;-84
2023/03/05 13:52:37;;;;;;;7.93;3.55;;;;;;;6.39;42.69;99293.53;7710774;32;37059;-83
2023/03/05 13:56:59;;;;;;;6.47;3.65;;;;;;;6.23;42.54;99297.19;7710099;32;38973;-83
2023/03/05 14:01:30;;;;;;;6.95;4.00;;;;;;;6.17;42.49;99292.78;7712191;32;39679;-83
2023/03/05 14:05:48;;;;;;;9.05;4.53;;;;;;;6.25;42.96;99270.69;7710802;32;37872;-84
2023/03/05 14:10:33;;;;;;;6.30;3.87;;;;;;;6.10;43.07;99292.16;7710438;32;36396;-85
2023/03/05 14:14:49;;;;;;;5.18;3.75;;;;;;;6.02;42.68;99285.34;7710949;32;39262;-84
2023/03/05 14:19:24;;;;;;;20.92;4.55;;;;;;;5.59;43.93;99289.69;7709992;32;40915;-83
2023/03/05 14:23:48;;;;;;;5.78;3.55;;;;;;;5.62;43.00;99281.88;7708593;32;38622;-83
2023/03/05 14:28:26;;;;;;;8.32;4.35;;;;;;;6.19;42.57;99258.16;7724587;32;37014;-84
2023/03/05 14:32:43;;;;;;;10.02;4.62;;;;;;;6.12;42.52;99277.31;7733666;32;39434;-83
2023/03/05 14:37:02;;;;;;;6.72;4.40;;;;;;;5.62;43.24;99271.06;7709377;32;41566;-83
2023/03/05 14:41:36;;;;;;;5.93;4.30;;;;;;;5.49;43.23;99268.72;7710045;32;37822;-85
2023/03/05 14:45:52;;;;;;;8.75;4.45;;;;;;;6.06;42.82;99264.81;7702900;32;35809;-85
2023/03/05 14:50:15;;;;;;;8.55;4.05;;;;;;;5.91;43.36;99257.28;7710264;32;40262;-85
2023/03/05 14:54:35;;;;;;;8.90;4.62;;;;;;;6.09;43.07;99253.47;7708906;32;40615;-84
2023/03/05 14:58:51;;;;;;;9.90;4.80;;;;;;;5.86;43.76;99254.53;7709088;32;37495;-84
2023/03/05 15:03:12;;;;;;;7.47;3.87;;;;;;;5.84;44.17;99245.87;7710301;32;37118;-85
2023/03/05 15:07:30;;;;;;;7.03;3.85;;;;;;;5.87;44.13;99249.97;7708068;32;40154;-84
2023/03/05 15:11:47;;;;;;;9.23;4.50;;;;;;;6.14;43.51;99244.56;7696321;32;40833;-84
2023/03/05 15:16:05;;;;;;;8.80;4.35;;;;;;;5.91;44.02;99246.47;7710406;32;37505;-82
2023/03/05 15:20:24;;;;;;;7.60;4.50;;;;;;;5.98;43.64;99235.47;7710060;32;37058;-82
2023/03/05 15:24:41;;;;;;;9.95;4.97;;;;;;;5.72;44.03;99242.47;7710269;32;39541;-82
2023/03/05 15:28:57;;;;;;;9.85;5.22;;;;;;;5.64;44.48;99238.34;7710143;32;39897;-82
2023/03/05 15:33:15;;;;;;;13.65;5.43;;;;;;;5.72;44.58;99226.25;7709869;32;35893;-82
2023/03/05 15:37:32;;;;;;;8.75;4.95;;;;;;;6.01;43.94;99227.66;7710603;32;37409;-82
2023/03/05 15:41:48;;;;;;;10.75;5.45;;;;;;;6.00;43.90;99231.47;7710798;32;40074;-82
2023/03/05 15:46:05;;;;;;;8.13;4.93;;;;;;;5.48;44.61;99226.50;7710577;32;39853;-83
2023/03/05 15:50:22;;;;;;;13.73;6.60;;;;;;;5.81;43.97;99230.13;7710546;32;37854;-84
2023/03/05 15:54:38;;;;;;;11.80;5.28;;;;;;;5.91;43.80;99224.03;7709922;32;37098;-85
2023/03/05 15:58:54;;;;;;;11.68;5.50;;;;;;;5.54;44.88;99230.94;7709876;32;39529;-85
2023/03/05 16:03:11;;;;;;;12.20;6.70;;;;;;;5.44;44.79;99226.19;7710109;32;39961;-84
2023/03/05 16:07:27;;;;;;;8.70;5.12;;;;;;;5.63;44.56;99229.41;7710006;32;38611;-84
2023/03/05 16:11:46;;;;;;;18.08;5.55;;;;;;;5.53;44.52;99226.56;7709300;32;37091;-78
2023/03/05 16:16:05;;;;;;;6.78;4.18;;;;;;;5.87;53.43;99229.13;7708573;32;38349;-85
2023/03/05 16:20:22;;;;;;;7.87;4.65;;;;;;;5.81;43.42;99216.59;7712673;32;40889;-84
2023/03/05 16:24:38;;;;;;;7.15;3.65;;;;;;;5.65;43.58;99229.97;7712472;32;38589;-84
2023/03/05 16:28:55;;;;;;;8.32;4.65;;;;;;;5.52;43.61;99230.38;7713132;32;36960;-84
2023/03/05 16:33:11;;;;;;;10.57;3.87;;;;;;;5.61;42.88;99220.72;7703251;32;39001;-78
2023/03/05 16:37:27;;;;;;;6.62;3.72;;;;;;;5.13;43.63;99211.50;7713050;32;40898;-83
2023/03/05 16:41:44;;;;;;;7.55;3.83;;;;;;;5.49;42.20;99228.16;7713015;32;38049;-84
2023/03/05 16:46:01;;;;;;;7.03;3.87;;;;;;;5.31;43.13;99236.56;7712724;32;36989;-85
2023/03/05 16:50:18;;;;;;;8.18;4.60;;;;;;;5.78;41.95;99241.47;7704669;32;39451;-83
2023/03/05 16:54:35;;;;;;;9.55;4.32;;;;;;;5.06;42.42;99245.97;7686147;32;40115;-83
2023/03/05 16:58:54;;;;;;;8.65;3.85;;;;;;;5.04;42.32;99243.53;7685706;32;37890;-82
2023/03/05 17:03:10;;;;;;;6.90;4.30;;;;;;;5.04;42.28;99248.94;7693682;32;38403;-83
2023/03/05 17:07:27;;;;;;;8.90;4.47;;;;;;;4.46;43.64;99245.59;7711256;32;39557;-81
2023/03/05 17:11:43;;;;;;;9.82;5.12;;;;;;;4.83;42.96;99253.22;7711902;32;39607;-81
2023/03/05 17:15:59;;;;;;;9.70;5.00;;;;;;;5.09;42.41;99250.91;7712113;32;38384;-82
2023/03/05 17:20:16;;;;;;;7.20;4.72;;;;;;;4.97;42.60;99264.50;7711542;32;37143;-82
2023/03/05 17:24:32;;;;;;;8.93;4.20;;;;;;;4.84;43.01;99268.34;7711631;32;39414;-81
2023/03/05 17:28:48;;;;;;;9.23;4.95;;;;;;;5.08;42.67;99268.16;7711894;32;41564;-81
2023/03/05 17:33:06;;;;;;;8.80;4.82;;;;;;;5.38;41.98;99269.63;7711596;32;37845;-81
2023/03/05 17:37:22;;;;;;;6.85;4.22;;;;;;;5.54;41.79;99263.38;7711929;32;37820;-82
2023/03/05 17:41:39;;;;;;;7.53;3.80;;;;;;;5.08;42.69;99260.06;7712093;32;39455;-81
2023/03/05 17:45:58;;;;;;;5.60;3.60;;;;;;;5.25;42.47;99244.63;7712174;32;41434;-82
2023/03/05 17:50:15;;;;;;;7.05;3.78;;;;;;;5.49;42.08;99247.09;7711766;32;37955;-81
2023/03/05 17:54:31;;;;;;;7.87;4.00;;;;;;;5.44;42.56;99250.53;7712041;32;37817;-84
2023/03/05 17:58:48;;;;;;;8.10;4.18;;;;;;;5.57;42.12;99241.25;7711616;32;38997;-84
2023/03/05 18:03:04;;;;;;;10.40;4.05;;;;;;;5.53;42.36;99245.50;7710724;32;40784;-79
2023/03/05 18:07:21;;;;;;;7.05;4.40;;;;;;;5.63;42.22;99248.34;7711779;32;37902;-83
2023/03/05 18:11:37;;;;;;;9.73;5.53;;;;;;;5.76;41.95;99251.72;7711846;32;37060;-82
2023/03/05 18:15:56;;;;;;;11.57;5.75;;;;;;;5.35;42.60;99260.16;7711820;32;39805;-83
2023/03/05 18:20:32;;;;;;;9.13;5.20;;;;;;;4.99;43.49;99256.97;7704989;32;40063;-82
2023/03/05 18:24:48;;;;;;;11.07;5.43;;;;;;;5.20;42.82;99249.94;7695507;32;37789;-83
2023/03/05 18:29:04;;;;;;;8.73;4.80;;;;;;;4.88;43.49;99253.31;7685086;32;37273;-82
2023/03/05 18:33:23;;;;;;;8.80;4.80;;;;;;;5.02;42.85;99256.47;7698749;32;39386;-81
2023/03/05 18:37:39;;;;;;;10.07;5.43;;;;;;;5.32;42.20;99249.84;7711745;32;39763;-81
2023/03/05 18:41:55;;;;;;;9.88;4.87;;;;;;;5.08;42.67;99250.06;7710670;32;37927;-80
2023/03/05 18:46:12;;;;;;;8.38;5.10;;;;;;;5.40;43.14;99244.00;7691066;32;37132;-81
2023/03/05 18:50:29;;;;;;;10.35;5.43;;;;;;;5.43;42.12;99245.38;7692329;32;39304;-82
2023/03/05 18:54:45;;;;;;;12.48;5.43;;;;;;;5.26;42.11;99246.25;7707152;32;40738;-82
2023/03/05 18:59:01;;;;;;;11.88;6.15;;;;;;;5.37;41.98;99249.09;7711343;32;37656;-81
2023/03/05 19:03:17;;;;;;;12.18;5.82;;;;;;;5.40;41.80;99256.72;7710471;32;36844;-81
2023/03/05 19:07:36;;;;;;;8.50;5.18;;;;;;;5.19;42.20;99237.53;7710543;32;39332;-83
2023/03/05 19:11:53;;;;;;;11.25;5.43;;;;;;;5.22;41.92;99244.31;7685593;32;40106;-81
2023/03/05 19:16:13;;;;;;;10.25;5.57;;;;;;;5.11;42.13;99248.75;7711034;32;38416;-82
2023/03/05 19:20:30;;;;;;;11.45;5.18;;;;;;;5.14;42.22;99242.88;7710860;32;36861;-82
2023/03/05 19:24:48;;;;;;;10.10;5.15;;;;;;;5.36;42.02;99239.34;7710970;32;38432;-83
2023/03/05 19:29:06;;;;;;;11.73;5.05;;;;;;;5.51;41.52;99250.34;7710833;32;39696;-84
2023/03/05 19:33:22;;;;;;;9.80;5.45;;;;;;;5.77;41.26;99250.66;7710720;32;37741;-84
2023/03/05 19:37:40;;;;;;;12.75;5.62;;;;;;;5.56;41.45;99236.91;7710783;32;37939;-84
2023/03/05 19:41:56;;;;;;;10.20;5.03;;;;;;;5.43;41.45;99239.97;7710782;32;39393;-82
2023/03/05 19:46:12;;;;;;;9.88;4.82;;;;;;;5.29;41.22;99230.63;7724114;32;40910;-81
2023/03/05 19:50:29;;;;;;;9.15;4.55;;;;;;;5.67;41.11;99237.81;7715501;32;37772;-81
2023/03/05 19:54:49;;;;;;;7.93;4.25;;;;;;;5.60;43.07;99240.72;7708818;32;38010;-82
2023/03/05 19:59:05;;;;;;;8.55;4.75;;;;;;;5.05;42.27;99238.94;7710510;32;39900;-82
2023/03/05 20:03:21;;;;;;;9.82;4.75;;;;;;;5.42;41.74;99238.34;7710169;32;40819;-81
2023/03/05 20:07:38;;;;;;;8.60;4.35;;;;;;;5.19;42.05;99239.37;7710032;32;37779;-83
2023/03/05 20:11:56;;;;;;;7.97;4.65;;;;;;;5.33;42.22;99237.97;7708840;32;37005;-86
2023/03/05 20:16:22;;;;;;;8.55;4.07;;;;;;;5.64;41.85;99239.16;7708639;32;38422;-85
2023/03/05 20:20:38;;;;;;;7.07;4.15;;;;;;;5.83;41.44;99233.44;7703086;32;40088;-85